sensor_id;sensor_type;location;lat;lon;timestamp;P1;durP1;ratioP1;P2;durP2;ratioP2
22046;SDS011;11187;49.412;20.956;2023-08-12T00:00:27;17.80;;;16.20;;
22046;SDS011;11187;49.412;20.956;2023-08-12T00:03:22;20.08;;;18.58;;
22046;SDS011;11187;49.412;20.956;2023-08-12T00:05:56;18.60;;;17.00;;
22046;SDS011;11187;49.412;20.956;2023-08-12T00:08:45;18.38;;;16.88;;
22046;SDS011;11187;49.412;20.956;2023-08-12T00:11:19;18.70;;;17.30;;
22046;SDS011;11187;49.412;20.956;2023-08-12T00:14:05;18.00;;;16.23;;
22046;SDS011;11187;49.412;20.956;2023-08-12T00:16:39;19.45;;;16.83;;
22046;SDS011;11187;49.412;20.956;2023-08-12T00:19:25;19.90;;;18.13;;
22046;SDS011;11187;49.412;20.956;2023-08-12T00:21:59;18.67;;;17.23;;
22046;SDS011;11187;49.412;20.956;2023-08-12T00:24:52;19.13;;;17.50;;
22046;SDS011;11187;49.412;20.956;2023-08-12T00:27:25;19.42;;;17.75;;
22046;SDS011;11187;49.412;20.956;2023-08-12T00:30:19;18.98;;;17.42;;
22046;SDS011;11187;49.412;20.956;2023-08-12T00:32:53;17.42;;;16.05;;
22046;SDS011;11187;49.412;20.956;2023-08-12T00:35:46;18.55;;;16.92;;
22046;SDS011;11187;49.412;20.956;2023-08-12T00:38:40;19.27;;;17.42;;
22046;SDS011;11187;49.412;20.956;2023-08-12T00:41:34;17.98;;;16.67;;
22046;SDS011;11187;49.412;20.956;2023-08-12T00:44:07;17.60;;;16.15;;
22046;SDS011;11187;49.412;20.956;2023-08-12T00:46:54;18.15;;;16.75;;
22046;SDS011;11187;49.412;20.956;2023-08-12T00:49:28;18.85;;;17.35;;
22046;SDS011;11187;49.412;20.956;2023-08-12T00:52:16;18.58;;;17.08;;
22046;SDS011;11187;49.412;20.956;2023-08-12T00:54:51;16.92;;;15.50;;
22046;SDS011;11187;49.412;20.956;2023-08-12T00:57:37;18.20;;;16.60;;
22046;SDS011;11187;49.412;20.956;2023-08-12T01:00:11;19.42;;;17.85;;
22046;SDS011;11187;49.412;20.956;2023-08-12T01:03:00;18.80;;;17.30;;
22046;SDS011;11187;49.412;20.956;2023-08-12T01:05:34;18.60;;;17.13;;
22046;SDS011;11187;49.412;20.956;2023-08-12T01:08:20;20.30;;;18.50;;
22046;SDS011;11187;49.412;20.956;2023-08-12T01:10:55;19.20;;;17.70;;
22046;SDS011;11187;49.412;20.956;2023-08-12T01:14:12;17.50;;;16.13;;
22046;SDS011;11187;49.412;20.956;2023-08-12T01:17:12;17.80;;;16.30;;
22046;SDS011;11187;49.412;20.956;2023-08-12T01:19:48;18.10;;;16.38;;
22046;SDS011;11187;49.412;20.956;2023-08-12T01:22:37;19.08;;;17.30;;
22046;SDS011;11187;49.412;20.956;2023-08-12T01:25:12;19.10;;;17.60;;
22046;SDS011;11187;49.412;20.956;2023-08-12T01:27:58;17.10;;;15.80;;
22046;SDS011;11187;49.412;20.956;2023-08-12T01:30:32;17.63;;;16.35;;
22046;SDS011;11187;49.412;20.956;2023-08-12T01:33:39;17.85;;;16.38;;
22046;SDS011;11187;49.412;20.956;2023-08-12T01:36:22;18.23;;;16.77;;
22046;SDS011;11187;49.412;20.956;2023-08-12T01:39:18;18.13;;;16.83;;
22046;SDS011;11187;49.412;20.956;2023-08-12T01:41:53;18.73;;;17.08;;
22046;SDS011;11187;49.412;20.956;2023-08-12T01:44:48;17.40;;;15.88;;
22046;SDS011;11187;49.412;20.956;2023-08-12T01:47:43;18.15;;;16.50;;
22046;SDS011;11187;49.412;20.956;2023-08-12T01:50:17;19.50;;;17.70;;
22046;SDS011;11187;49.412;20.956;2023-08-12T01:53:05;17.15;;;15.60;;
22046;SDS011;11187;49.412;20.956;2023-08-12T01:55:39;17.60;;;15.60;;
22046;SDS011;11187;49.412;20.956;2023-08-12T01:58:33;16.98;;;15.68;;
22046;SDS011;11187;49.412;20.956;2023-08-12T02:01:09;19.45;;;17.73;;
22046;SDS011;11187;49.412;20.956;2023-08-12T02:03:56;18.50;;;17.20;;
22046;SDS011;11187;49.412;20.956;2023-08-12T02:06:30;17.92;;;16.35;;
22046;SDS011;11187;49.412;20.956;2023-08-12T02:09:23;18.98;;;17.58;;
22046;SDS011;11187;49.412;20.956;2023-08-12T02:12:17;17.75;;;16.35;;
22046;SDS011;11187;49.412;20.956;2023-08-12T02:14:51;18.02;;;16.60;;
22046;SDS011;11187;49.412;20.956;2023-08-12T02:17:44;18.38;;;16.98;;
22046;SDS011;11187;49.412;20.956;2023-08-12T02:20:18;19.08;;;17.50;;
22046;SDS011;11187;49.412;20.956;2023-08-12T02:23:04;18.83;;;17.42;;
22046;SDS011;11187;49.412;20.956;2023-08-12T02:25:38;19.33;;;17.83;;
22046;SDS011;11187;49.412;20.956;2023-08-12T02:28:27;19.40;;;18.00;;
22046;SDS011;11187;49.412;20.956;2023-08-12T02:31:01;18.85;;;17.45;;
22046;SDS011;11187;49.412;20.956;2023-08-12T02:33:48;18.67;;;17.05;;
22046;SDS011;11187;49.412;20.956;2023-08-12T02:36:22;18.35;;;16.95;;
22046;SDS011;11187;49.412;20.956;2023-08-12T02:39:15;18.90;;;17.45;;
22046;SDS011;11187;49.412;20.956;2023-08-12T02:42:09;18.73;;;17.23;;
22046;SDS011;11187;49.412;20.956;2023-08-12T02:44:43;19.00;;;17.55;;
22046;SDS011;11187;49.412;20.956;2023-08-12T02:47:29;18.58;;;17.30;;
22046;SDS011;11187;49.412;20.956;2023-08-12T02:50:03;19.48;;;18.02;;
22046;SDS011;11187;49.412;20.956;2023-08-12T02:52:57;19.25;;;17.85;;
22046;SDS011;11187;49.412;20.956;2023-08-12T02:55:51;18.75;;;17.30;;
22046;SDS011;11187;49.412;20.956;2023-08-12T02:58:45;19.27;;;17.90;;
22046;SDS011;11187;49.412;20.956;2023-08-12T03:01:20;19.33;;;17.88;;
22046;SDS011;11187;49.412;20.956;2023-08-12T03:04:15;19.88;;;18.35;;
22046;SDS011;11187;49.412;20.956;2023-08-12T03:07:09;18.85;;;17.35;;
22046;SDS011;11187;49.412;20.956;2023-08-12T03:09:43;18.52;;;17.13;;
22046;SDS011;11187;49.412;20.956;2023-08-12T03:12:29;20.38;;;18.65;;
22046;SDS011;11187;49.412;20.956;2023-08-12T03:15:03;20.70;;;18.67;;
22046;SDS011;11187;49.412;20.956;2023-08-12T03:17:45;21.40;;;19.63;;
22046;SDS011;11187;49.412;20.956;2023-08-12T03:20:25;18.98;;;17.52;;
22046;SDS011;11187;49.412;20.956;2023-08-12T03:23:05;19.50;;;18.00;;
22046;SDS011;11187;49.412;20.956;2023-08-12T03:25:48;18.60;;;17.10;;
22046;SDS011;11187;49.412;20.956;2023-08-12T03:28:29;18.73;;;17.10;;
22046;SDS011;11187;49.412;20.956;2023-08-12T03:31:09;18.88;;;17.27;;
22046;SDS011;11187;49.412;20.956;2023-08-12T03:33:49;20.08;;;18.67;;
22046;SDS011;11187;49.412;20.956;2023-08-12T03:36:29;19.92;;;18.52;;
22046;SDS011;11187;49.412;20.956;2023-08-12T03:39:09;18.50;;;17.20;;
22046;SDS011;11187;49.412;20.956;2023-08-12T03:41:49;20.08;;;18.58;;
22046;SDS011;11187;49.412;20.956;2023-08-12T03:44:29;19.27;;;17.75;;
22046;SDS011;11187;49.412;20.956;2023-08-12T03:47:09;19.38;;;17.63;;
22046;SDS011;11187;49.412;20.956;2023-08-12T03:49:43;17.98;;;16.65;;
22046;SDS011;11187;49.412;20.956;2023-08-12T03:52:29;18.95;;;17.35;;
22046;SDS011;11187;49.412;20.956;2023-08-12T03:55:03;18.73;;;17.23;;
22046;SDS011;11187;49.412;20.956;2023-08-12T03:58:00;19.25;;;17.75;;
22046;SDS011;11187;49.412;20.956;2023-08-12T04:00:54;19.48;;;17.88;;
22046;SDS011;11187;49.412;20.956;2023-08-12T04:03:28;19.50;;;17.83;;
22046;SDS011;11187;49.412;20.956;2023-08-12T04:06:14;21.02;;;19.25;;
22046;SDS011;11187;49.412;20.956;2023-08-12T04:08:48;19.67;;;17.98;;
22046;SDS011;11187;49.412;20.956;2023-08-12T04:11:34;19.05;;;17.55;;
22046;SDS011;11187;49.412;20.956;2023-08-12T04:14:08;18.42;;;16.88;;
22046;SDS011;11187;49.412;20.956;2023-08-12T04:16:54;17.23;;;15.93;;
22046;SDS011;11187;49.412;20.956;2023-08-12T04:19:28;16.73;;;15.48;;
22046;SDS011;11187;49.412;20.956;2023-08-12T04:22:21;19.05;;;17.55;;
22046;SDS011;11187;49.412;20.956;2023-08-12T04:24:55;19.02;;;17.63;;
22046;SDS011;11187;49.412;20.956;2023-08-12T04:27:41;19.15;;;17.75;;
22046;SDS011;11187;49.412;20.956;2023-08-12T04:30:16;20.17;;;18.48;;
22046;SDS011;11187;49.412;20.956;2023-08-12T04:33:09;19.73;;;18.05;;
22046;SDS011;11187;49.412;20.956;2023-08-12T04:36:03;20.63;;;18.85;;
22046;SDS011;11187;49.412;20.956;2023-08-12T04:38:37;22.33;;;20.48;;
22046;SDS011;11187;49.412;20.956;2023-08-12T04:41:23;22.52;;;20.52;;
22046;SDS011;11187;49.412;20.956;2023-08-12T04:43:57;20.45;;;18.42;;
22046;SDS011;11187;49.412;20.956;2023-08-12T04:46:43;19.60;;;17.70;;
22046;SDS011;11187;49.412;20.956;2023-08-12T04:49:17;18.98;;;17.00;;
22046;SDS011;11187;49.412;20.956;2023-08-12T04:52:10;20.90;;;19.27;;
22046;SDS011;11187;49.412;20.956;2023-08-12T04:55:04;20.65;;;19.15;;
22046;SDS011;11187;49.412;20.956;2023-08-12T04:57:58;19.45;;;17.75;;
22046;SDS011;11187;49.412;20.956;2023-08-12T05:00:52;19.63;;;18.02;;
22046;SDS011;11187;49.412;20.956;2023-08-12T05:03:26;21.08;;;19.25;;
22046;SDS011;11187;49.412;20.956;2023-08-12T05:06:19;20.20;;;18.55;;
22046;SDS011;11187;49.412;20.956;2023-08-12T05:09:14;17.27;;;15.98;;
22046;SDS011;11187;49.412;20.956;2023-08-12T05:11:48;17.35;;;15.98;;
22046;SDS011;11187;49.412;20.956;2023-08-12T05:14:34;19.02;;;17.55;;
22046;SDS011;11187;49.412;20.956;2023-08-12T05:17:08;18.58;;;17.08;;
22046;SDS011;11187;49.412;20.956;2023-08-12T05:20:01;19.48;;;18.15;;
22046;SDS011;11187;49.412;20.956;2023-08-12T05:22:55;19.98;;;18.38;;
22046;SDS011;11187;49.412;20.956;2023-08-12T05:25:49;18.27;;;16.80;;
22046;SDS011;11187;49.412;20.956;2023-08-12T05:28:43;18.83;;;17.42;;
22046;SDS011;11187;49.412;20.956;2023-08-12T05:31:17;18.55;;;17.25;;
22046;SDS011;11187;49.412;20.956;2023-08-12T05:34:10;18.63;;;17.23;;
22046;SDS011;11187;49.412;20.956;2023-08-12T05:37:04;18.33;;;17.02;;
22046;SDS011;11187;49.412;20.956;2023-08-12T05:39:38;19.15;;;17.58;;
22046;SDS011;11187;49.412;20.956;2023-08-12T05:42:24;19.52;;;18.02;;
22046;SDS011;11187;49.412;20.956;2023-08-12T05:44:58;18.70;;;17.30;;
22046;SDS011;11187;49.412;20.956;2023-08-12T05:47:51;20.20;;;18.70;;
22046;SDS011;11187;49.412;20.956;2023-08-12T05:50:53;19.25;;;17.52;;
22046;SDS011;11187;49.412;20.956;2023-08-12T05:53:48;19.20;;;17.60;;
22046;SDS011;11187;49.412;20.956;2023-08-12T05:56:41;19.95;;;18.48;;
22046;SDS011;11187;49.412;20.956;2023-08-12T05:59:15;18.75;;;17.40;;
22046;SDS011;11187;49.412;20.956;2023-08-12T06:02:08;16.33;;;14.93;;
22046;SDS011;11187;49.412;20.956;2023-08-12T06:04:42;16.70;;;15.50;;
22046;SDS011;11187;49.412;20.956;2023-08-12T06:07:28;18.50;;;16.98;;
22046;SDS011;11187;49.412;20.956;2023-08-12T06:10:02;16.90;;;15.60;;
22046;SDS011;11187;49.412;20.956;2023-08-12T06:12:50;17.48;;;16.15;;
22046;SDS011;11187;49.412;20.956;2023-08-12T06:15:24;19.45;;;18.10;;
22046;SDS011;11187;49.412;20.956;2023-08-12T06:18:10;18.88;;;17.38;;
22046;SDS011;11187;49.412;20.956;2023-08-12T06:20:44;18.67;;;17.02;;
22046;SDS011;11187;49.412;20.956;2023-08-12T06:23:37;18.23;;;16.88;;
22046;SDS011;11187;49.412;20.956;2023-08-12T06:26:31;19.95;;;18.38;;
22046;SDS011;11187;49.412;20.956;2023-08-12T06:29:05;20.13;;;18.63;;
22046;SDS011;11187;49.412;20.956;2023-08-12T06:31:52;18.17;;;16.88;;
22046;SDS011;11187;49.412;20.956;2023-08-12T06:34:26;19.80;;;17.98;;
22046;SDS011;11187;49.412;20.956;2023-08-12T06:37:19;18.63;;;16.92;;
22046;SDS011;11187;49.412;20.956;2023-08-12T06:39:53;19.48;;;17.98;;
22046;SDS011;11187;49.412;20.956;2023-08-12T06:42:39;19.00;;;17.60;;
22046;SDS011;11187;49.412;20.956;2023-08-12T06:45:13;18.73;;;17.13;;
22046;SDS011;11187;49.412;20.956;2023-08-12T06:47:59;18.50;;;17.00;;
22046;SDS011;11187;49.412;20.956;2023-08-12T06:50:35;17.13;;;15.82;;
22046;SDS011;11187;49.412;20.956;2023-08-12T06:53:28;17.08;;;15.77;;
22046;SDS011;11187;49.412;20.956;2023-08-12T06:56:02;19.67;;;18.17;;
22046;SDS011;11187;49.412;20.956;2023-08-12T06:58:55;17.88;;;16.60;;
22046;SDS011;11187;49.412;20.956;2023-08-12T07:01:29;17.58;;;16.15;;
22046;SDS011;11187;49.412;20.956;2023-08-12T07:04:22;18.35;;;16.95;;
22046;SDS011;11187;49.412;20.956;2023-08-12T07:06:56;17.30;;;16.05;;
22046;SDS011;11187;49.412;20.956;2023-08-12T07:09:42;18.73;;;17.27;;
22046;SDS011;11187;49.412;20.956;2023-08-12T07:12:16;17.00;;;15.80;;
22046;SDS011;11187;49.412;20.956;2023-08-12T07:15:02;17.80;;;16.60;;
22046;SDS011;11187;49.412;20.956;2023-08-12T07:17:36;18.90;;;17.38;;
22046;SDS011;11187;49.412;20.956;2023-08-12T07:20:29;18.83;;;17.33;;
22046;SDS011;11187;49.412;20.956;2023-08-12T07:23:03;18.67;;;17.38;;
22046;SDS011;11187;49.412;20.956;2023-08-12T07:25:49;18.45;;;17.05;;
22046;SDS011;11187;49.412;20.956;2023-08-12T07:28:23;19.05;;;17.75;;
22046;SDS011;11187;49.412;20.956;2023-08-12T07:31:17;21.60;;;20.02;;
22046;SDS011;11187;49.412;20.956;2023-08-12T07:34:11;20.70;;;18.67;;
22046;SDS011;11187;49.412;20.956;2023-08-12T07:37:09;18.02;;;16.70;;
22046;SDS011;11187;49.412;20.956;2023-08-12T07:40:03;17.30;;;16.13;;
22046;SDS011;11187;49.412;20.956;2023-08-12T07:42:57;17.52;;;16.33;;
22046;SDS011;11187;49.412;20.956;2023-08-12T07:45:52;16.98;;;15.70;;
22046;SDS011;11187;49.412;20.956;2023-08-12T07:48:35;17.88;;;16.27;;
22046;SDS011;11187;49.412;20.956;2023-08-12T07:51:22;17.42;;;15.88;;
22046;SDS011;11187;49.412;20.956;2023-08-12T07:53:56;18.08;;;16.77;;
22046;SDS011;11187;49.412;20.956;2023-08-12T07:56:49;19.30;;;17.90;;
22046;SDS011;11187;49.412;20.956;2023-08-12T07:59:43;17.83;;;16.63;;
22046;SDS011;11187;49.412;20.956;2023-08-12T08:02:38;16.83;;;15.63;;
22046;SDS011;11187;49.412;20.956;2023-08-12T08:05:31;18.58;;;17.15;;
22046;SDS011;11187;49.412;20.956;2023-08-12T08:08:07;16.90;;;15.40;;
22046;SDS011;11187;49.412;20.956;2023-08-12T08:10:53;17.98;;;16.48;;
22046;SDS011;11187;49.412;20.956;2023-08-12T08:13:27;17.20;;;15.80;;
22046;SDS011;11187;49.412;20.956;2023-08-12T08:16:20;15.95;;;14.75;;
22046;SDS011;11187;49.412;20.956;2023-08-12T08:18:54;15.93;;;14.82;;
22046;SDS011;11187;49.412;20.956;2023-08-12T08:21:41;16.98;;;15.75;;
22046;SDS011;11187;49.412;20.956;2023-08-12T08:24:15;17.05;;;15.70;;
22046;SDS011;11187;49.412;20.956;2023-08-12T08:27:01;16.20;;;15.05;;
22046;SDS011;11187;49.412;20.956;2023-08-12T08:29:37;15.90;;;14.90;;
22046;SDS011;11187;49.412;20.956;2023-08-12T08:32:23;18.70;;;17.30;;
22046;SDS011;11187;49.412;20.956;2023-08-12T08:34:57;18.35;;;16.95;;
22046;SDS011;11187;49.412;20.956;2023-08-12T08:37:50;18.92;;;17.33;;
22046;SDS011;11187;49.412;20.956;2023-08-12T08:40:25;19.23;;;17.92;;
22046;SDS011;11187;49.412;20.956;2023-08-12T08:43:20;19.27;;;17.98;;
22046;SDS011;11187;49.412;20.956;2023-08-12T08:46:15;18.60;;;16.50;;
22046;SDS011;11187;49.412;20.956;2023-08-12T08:48:49;16.60;;;15.40;;
22046;SDS011;11187;49.412;20.956;2023-08-12T08:51:37;18.70;;;17.50;;
22046;SDS011;11187;49.412;20.956;2023-08-12T08:54:11;19.42;;;15.82;;
22046;SDS011;11187;49.412;20.956;2023-08-12T08:57:05;17.10;;;15.57;;
22046;SDS011;11187;49.412;20.956;2023-08-12T08:59:48;16.23;;;15.13;;
22046;SDS011;11187;49.412;20.956;2023-08-12T09:02:37;19.15;;;17.65;;
22046;SDS011;11187;49.412;20.956;2023-08-12T09:05:12;17.42;;;16.30;;
22046;SDS011;11187;49.412;20.956;2023-08-12T09:08:02;17.35;;;16.13;;
22046;SDS011;11187;49.412;20.956;2023-08-12T09:10:38;17.33;;;16.13;;
22046;SDS011;11187;49.412;20.956;2023-08-12T09:13:32;18.45;;;17.10;;
22046;SDS011;11187;49.412;20.956;2023-08-12T09:16:26;22.10;;;20.65;;
22046;SDS011;11187;49.412;20.956;2023-08-12T09:19:20;22.13;;;20.48;;
22046;SDS011;11187;49.412;20.956;2023-08-12T09:22:14;21.15;;;19.63;;
22046;SDS011;11187;49.412;20.956;2023-08-12T09:24:49;19.88;;;18.48;;
22046;SDS011;11187;49.412;20.956;2023-08-12T09:27:43;19.92;;;18.55;;
22046;SDS011;11187;49.412;20.956;2023-08-12T09:30:17;21.45;;;19.83;;
22046;SDS011;11187;49.412;20.956;2023-08-12T09:33:13;20.83;;;19.08;;
22046;SDS011;11187;49.412;20.956;2023-08-12T09:35:47;20.88;;;19.38;;
22046;SDS011;11187;49.412;20.956;2023-08-12T09:38:44;22.92;;;21.23;;
22046;SDS011;11187;49.412;20.956;2023-08-12T09:41:38;22.05;;;20.45;;
22046;SDS011;11187;49.412;20.956;2023-08-12T09:44:36;23.50;;;21.55;;
22046;SDS011;11187;49.412;20.956;2023-08-12T09:47:30;20.67;;;19.27;;
22046;SDS011;11187;49.412;20.956;2023-08-12T09:50:06;21.90;;;20.00;;
22046;SDS011;11187;49.412;20.956;2023-08-12T09:52:54;22.02;;;20.58;;
22046;SDS011;11187;49.412;20.956;2023-08-12T09:55:28;22.00;;;20.60;;
22046;SDS011;11187;49.412;20.956;2023-08-12T09:58:17;21.23;;;19.73;;
22046;SDS011;11187;49.412;20.956;2023-08-12T10:00:54;19.67;;;18.17;;
22046;SDS011;11187;49.412;20.956;2023-08-12T10:03:41;20.10;;;18.83;;
22046;SDS011;11187;49.412;20.956;2023-08-12T10:06:21;22.02;;;20.42;;
22046;SDS011;11187;49.412;20.956;2023-08-12T10:09:08;20.02;;;18.73;;
22046;SDS011;11187;49.412;20.956;2023-08-12T10:11:45;19.50;;;18.25;;
22046;SDS011;11187;49.412;20.956;2023-08-12T10:14:39;22.45;;;20.75;;
22046;SDS011;11187;49.412;20.956;2023-08-12T10:17:13;22.55;;;20.85;;
22046;SDS011;11187;49.412;20.956;2023-08-12T10:20:22;19.25;;;17.95;;
22046;SDS011;11187;49.412;20.956;2023-08-12T10:22:57;19.33;;;18.02;;
22046;SDS011;11187;49.412;20.956;2023-08-12T10:25:54;20.17;;;18.88;;
22046;SDS011;11187;49.412;20.956;2023-08-12T10:28:48;18.55;;;17.20;;
22046;SDS011;11187;49.412;20.956;2023-08-12T10:31:22;17.67;;;16.15;;
22046;SDS011;11187;49.412;20.956;2023-08-12T10:34:16;19.38;;;18.08;;
22046;SDS011;11187;49.412;20.956;2023-08-12T10:37:01;18.95;;;17.52;;
22046;SDS011;11187;49.412;20.956;2023-08-12T10:39:48;19.48;;;17.92;;
22046;SDS011;11187;49.412;20.956;2023-08-12T10:45:41;18.15;;;17.00;;
22046;SDS011;11187;49.412;20.956;2023-08-12T10:48:16;21.48;;;19.48;;
22046;SDS011;11187;49.412;20.956;2023-08-12T10:51:06;19.20;;;17.65;;
22046;SDS011;11187;49.412;20.956;2023-08-12T10:53:41;20.25;;;18.92;;
22046;SDS011;11187;49.412;20.956;2023-08-12T10:56:29;20.35;;;18.70;;
22046;SDS011;11187;49.412;20.956;2023-08-12T10:59:03;19.48;;;18.20;;
22046;SDS011;11187;49.412;20.956;2023-08-12T11:02:13;18.48;;;17.00;;
22046;SDS011;11187;49.412;20.956;2023-08-12T11:05:10;18.30;;;17.10;;
22046;SDS011;11187;49.412;20.956;2023-08-12T11:08:07;19.00;;;17.50;;
22046;SDS011;11187;49.412;20.956;2023-08-12T11:10:41;18.35;;;16.92;;
22046;SDS011;11187;49.412;20.956;2023-08-12T11:13:27;16.13;;;14.88;;
22046;SDS011;11187;49.412;20.956;2023-08-12T11:16:07;18.67;;;15.98;;
22046;SDS011;11187;49.412;20.956;2023-08-12T11:18:55;18.70;;;17.40;;
22046;SDS011;11187;49.412;20.956;2023-08-12T11:21:30;18.30;;;16.90;;
22046;SDS011;11187;49.412;20.956;2023-08-12T11:24:18;18.15;;;16.95;;
22046;SDS011;11187;49.412;20.956;2023-08-12T11:26:52;18.15;;;16.67;;
22046;SDS011;11187;49.412;20.956;2023-08-12T11:29:39;17.77;;;16.50;;
22046;SDS011;11187;49.412;20.956;2023-08-12T11:32:16;18.25;;;17.02;;
22046;SDS011;11187;49.412;20.956;2023-08-12T11:35:07;18.23;;;17.02;;
22046;SDS011;11187;49.412;20.956;2023-08-12T11:37:44;17.75;;;16.48;;
22046;SDS011;11187;49.412;20.956;2023-08-12T11:40:44;16.13;;;14.93;;
22046;SDS011;11187;49.412;20.956;2023-08-12T11:43:21;19.20;;;17.40;;
22046;SDS011;11187;49.412;20.956;2023-08-12T11:46:18;17.30;;;16.20;;
22046;SDS011;11187;49.412;20.956;2023-08-12T11:49:12;17.50;;;16.00;;
22046;SDS011;11187;49.412;20.956;2023-08-12T11:51:46;19.70;;;18.10;;
22046;SDS011;11187;49.412;20.956;2023-08-12T11:54:41;19.95;;;18.55;;
22046;SDS011;11187;49.412;20.956;2023-08-12T11:57:35;18.77;;;17.33;;
22046;SDS011;11187;49.412;20.956;2023-08-12T12:00:11;16.15;;;15.02;;
22046;SDS011;11187;49.412;20.956;2023-08-12T12:02:59;18.85;;;17.55;;
22046;SDS011;11187;49.412;20.956;2023-08-12T12:05:33;19.27;;;18.08;;
22046;SDS011;11187;49.412;20.956;2023-08-12T12:08:19;17.77;;;16.38;;
22046;SDS011;11187;49.412;20.956;2023-08-12T12:10:56;17.00;;;15.90;;
22046;SDS011;11187;49.412;20.956;2023-08-12T12:13:50;18.05;;;16.85;;
22046;SDS011;11187;49.412;20.956;2023-08-12T12:16:24;17.30;;;16.05;;
22046;SDS011;11187;49.412;20.956;2023-08-12T12:19:18;17.23;;;15.82;;
22046;SDS011;11187;49.412;20.956;2023-08-12T12:21:56;17.83;;;16.63;;
22046;SDS011;11187;49.412;20.956;2023-08-12T12:24:49;17.60;;;16.40;;
22046;SDS011;11187;49.412;20.956;2023-08-12T12:27:26;18.65;;;17.48;;
22046;SDS011;11187;49.412;20.956;2023-08-12T12:30:21;18.58;;;16.92;;
22046;SDS011;11187;49.412;20.956;2023-08-12T12:32:54;17.43;;;15.97;;
22046;SDS011;11187;49.412;20.956;2023-08-12T12:35:47;18.10;;;16.80;;
22046;SDS011;11187;49.412;20.956;2023-08-12T12:38:26;17.23;;;15.75;;
22046;SDS011;11187;49.412;20.956;2023-08-12T12:41:20;17.60;;;16.40;;
22046;SDS011;11187;49.412;20.956;2023-08-12T12:44:14;18.67;;;17.48;;
22046;SDS011;11187;49.412;20.956;2023-08-12T12:47:09;18.58;;;17.38;;
22046;SDS011;11187;49.412;20.956;2023-08-12T12:50:03;17.45;;;16.15;;
22046;SDS011;11187;49.412;20.956;2023-08-12T12:52:36;18.90;;;17.50;;
22046;SDS011;11187;49.412;20.956;2023-08-12T12:55:23;18.15;;;16.52;;
22046;SDS011;11187;49.412;20.956;2023-08-12T12:58:17;16.13;;;15.05;;
22046;SDS011;11187;49.412;20.956;2023-08-12T13:00:52;17.25;;;16.15;;
22046;SDS011;11187;49.412;20.956;2023-08-12T13:03:38;20.75;;;19.35;;
22046;SDS011;11187;49.412;20.956;2023-08-12T13:06:12;18.83;;;17.30;;
22046;SDS011;11187;49.412;20.956;2023-08-12T13:08:58;20.77;;;19.48;;
22046;SDS011;11187;49.412;20.956;2023-08-12T13:11:32;19.40;;;18.08;;
22046;SDS011;11187;49.412;20.956;2023-08-12T13:14:19;18.33;;;17.23;;
22046;SDS011;11187;49.412;20.956;2023-08-12T13:16:54;18.75;;;17.58;;
22046;SDS011;11187;49.412;20.956;2023-08-12T13:19:40;18.00;;;16.80;;
22046;SDS011;11187;49.412;20.956;2023-08-12T13:22:14;18.90;;;17.42;;
22046;SDS011;11187;49.412;20.956;2023-08-12T13:25:01;19.58;;;17.92;;
22046;SDS011;11187;49.412;20.956;2023-08-12T13:27:34;19.67;;;18.38;;
22046;SDS011;11187;49.412;20.956;2023-08-12T13:30:22;18.92;;;17.20;;
22046;SDS011;11187;49.412;20.956;2023-08-12T13:32:55;19.23;;;17.92;;
22046;SDS011;11187;49.412;20.956;2023-08-12T13:35:42;17.80;;;16.60;;
22046;SDS011;11187;49.412;20.956;2023-08-12T13:38:16;19.73;;;18.05;;
22046;SDS011;11187;49.412;20.956;2023-08-12T13:41:02;20.58;;;18.65;;
22046;SDS011;11187;49.412;20.956;2023-08-12T13:43:36;17.67;;;16.55;;
22046;SDS011;11187;49.412;20.956;2023-08-12T13:46:32;17.38;;;16.27;;
22046;SDS011;11187;49.412;20.956;2023-08-12T13:49:06;22.15;;;19.88;;
22046;SDS011;11187;49.412;20.956;2023-08-12T13:51:55;20.40;;;19.02;;
22046;SDS011;11187;49.412;20.956;2023-08-12T13:54:31;22.10;;;20.70;;
22046;SDS011;11187;49.412;20.956;2023-08-12T13:57:25;18.77;;;17.52;;
22046;SDS011;11187;49.412;20.956;2023-08-12T14:00:19;20.75;;;19.17;;
22046;SDS011;11187;49.412;20.956;2023-08-12T14:02:52;19.95;;;18.42;;
22046;SDS011;11187;49.412;20.956;2023-08-12T14:05:46;19.98;;;18.52;;
22046;SDS011;11187;49.412;20.956;2023-08-12T14:08:40;19.85;;;18.45;;
22046;SDS011;11187;49.412;20.956;2023-08-12T14:11:13;18.65;;;17.10;;
22046;SDS011;11187;49.412;20.956;2023-08-12T14:14:07;18.67;;;17.48;;
22046;SDS011;11187;49.412;20.956;2023-08-12T14:16:43;19.65;;;18.35;;
22046;SDS011;11187;49.412;20.956;2023-08-12T14:19:30;20.27;;;18.85;;
22046;SDS011;11187;49.412;20.956;2023-08-12T14:22:03;20.27;;;18.98;;
22046;SDS011;11187;49.412;20.956;2023-08-12T14:24:50;21.30;;;19.70;;
22046;SDS011;11187;49.412;20.956;2023-08-12T14:27:24;21.83;;;20.33;;
22046;SDS011;11187;49.412;20.956;2023-08-12T14:30:11;18.90;;;17.60;;
22046;SDS011;11187;49.412;20.956;2023-08-12T14:32:44;19.23;;;17.95;;
22046;SDS011;11187;49.412;20.956;2023-08-12T14:35:31;19.48;;;18.27;;
22046;SDS011;11187;49.412;20.956;2023-08-12T14:38:04;20.73;;;19.42;;
22046;SDS011;11187;49.412;20.956;2023-08-12T14:40:52;19.80;;;18.45;;
22046;SDS011;11187;49.412;20.956;2023-08-12T14:43:25;21.00;;;19.60;;
22046;SDS011;11187;49.412;20.956;2023-08-12T14:46:12;20.17;;;18.88;;
22046;SDS011;11187;49.412;20.956;2023-08-12T14:48:45;21.00;;;19.33;;
22046;SDS011;11187;49.412;20.956;2023-08-12T14:51:33;20.02;;;18.73;;
22046;SDS011;11187;49.412;20.956;2023-08-12T14:54:06;20.27;;;18.80;;
22046;SDS011;11187;49.412;20.956;2023-08-12T14:56:55;19.48;;;18.08;;
22046;SDS011;11187;49.412;20.956;2023-08-12T14:59:28;19.50;;;18.15;;
22046;SDS011;11187;49.412;20.956;2023-08-12T15:02:22;19.50;;;18.10;;
22046;SDS011;11187;49.412;20.956;2023-08-12T15:05:16;20.25;;;18.95;;
22046;SDS011;11187;49.412;20.956;2023-08-12T15:08:11;19.45;;;18.25;;
22046;SDS011;11187;49.412;20.956;2023-08-12T15:10:44;19.80;;;18.50;;
22046;SDS011;11187;49.412;20.956;2023-08-12T15:13:38;18.25;;;16.85;;
22046;SDS011;11187;49.412;20.956;2023-08-12T15:16:32;19.83;;;18.13;;
22046;SDS011;11187;49.412;20.956;2023-08-12T15:19:31;25.23;;;22.83;;
22046;SDS011;11187;49.412;20.956;2023-08-12T15:22:04;21.98;;;19.98;;
22046;SDS011;11187;49.412;20.956;2023-08-12T15:24:58;19.42;;;17.70;;
22046;SDS011;11187;49.412;20.956;2023-08-12T15:27:31;19.40;;;17.80;;
22046;SDS011;11187;49.412;20.956;2023-08-12T15:30:26;20.70;;;19.30;;
22046;SDS011;11187;49.412;20.956;2023-08-12T15:32:59;22.65;;;20.85;;
22046;SDS011;11187;49.412;20.956;2023-08-12T15:35:46;22.35;;;20.50;;
22046;SDS011;11187;49.412;20.956;2023-08-12T15:38:19;24.90;;;22.52;;
22046;SDS011;11187;49.412;20.956;2023-08-12T15:41:13;25.92;;;22.90;;
22046;SDS011;11187;49.412;20.956;2023-08-12T15:43:47;23.35;;;20.90;;
22046;SDS011;11187;49.412;20.956;2023-08-12T15:46:35;24.92;;;22.33;;
22046;SDS011;11187;49.412;20.956;2023-08-12T15:49:08;22.10;;;19.02;;